Impacts METAR Board
IDs:

KMSP - Minneapolis-St Paul, MN, US

Updated at: 2100 UTC 08 Aug 2020
Potential Impact None Slight Moderate High
Time 08/09Z 08/10Z 08/11Z 08/12Z 08/13Z 08/14Z 08/15Z 08/16Z 08/17Z 08/18Z 08/19Z 08/20Z 08/21Z
Temp75 74 74 74 75 77 78 78 81 82 81 81 81
Dewpt69 69 70 70 70 70 70 70 71 71 71 72 72
Altim29.92 29.91 29.91 29.92 29.94 29.95 29.96 29.96 29.95 29.93 29.94 29.98 29.96
VIS10 10 10 10 10 10 10 10 10 10 10 10 10
CIG20 41 60 60 40 27 21 20 20 22 24 24 23
CoverOVCOVCBKNBKNBKNOVCOVCOVCOVCOVCOVCOVCOVC
FltCatMVFRVFRVFRVFRVFRMVFRMVFRMVFRMVFRMVFRMVFRMVFRMVFR
WX--------------------------
WDir150170170170180200230220200160220240280
WSpd6 7 8 6 6 8 8 8 6 8 5 7 7
WGst-- -- -- -- -- -- -- -- -- -- -- -- --
Raw hourly METARs
KMSP 080853Z 15006KT 10SM OVC020 24/21 A2992 RMK AO2 SLP127 T02390206 50003
KMSP 080953Z 17007KT 10SM FEW019 BKN041 OVC060 23/21 A2991 RMK AO2 SLP124 T02330206
KMSP 081053Z 17008KT 10SM SCT036 BKN060 23/21 A2991 RMK AO2 SLP122 T02330211
KMSP 081153Z 17006KT 10SM FEW039 BKN060 23/21 A2992 RMK AO2 SLP125 T02330211 10250 20233 55001
KMSP 081253Z 18006KT 10SM FEW030 BKN040 24/21 A2994 RMK AO2 SLP131 T02390211
KMSP 081353Z 20008KT 10SM FEW018 OVC027 25/21 A2995 RMK AO2 SLP137 T02500211
KMSP 081453Z 23008KT 10SM OVC021 26/21 A2996 RMK AO2 SLP138 T02560211 51013
KMSP 081553Z 22008KT 10SM OVC020 26/21 A2996 RMK AO2 SLP139 T02560211
KMSP 081653Z 20006KT 10SM OVC020 27/22 A2995 RMK AO2 SLP136 T02720217
KMSP 081753Z 16008KT 10SM OVC022 28/22 A2993 RMK AO2 SLP128 T02780217 10278 20233 58009
KMSP 081853Z 22005KT 10SM OVC024 27/22 A2994 RMK AO2 SLP133 T02720217
KMSP 081953Z 24007KT 10SM OVC024 27/22 A2998 RMK AO2 SLP147 T02720222
KMSP 082053Z 28007KT 10SM OVC023 27/22 A2996 RMK AO2 RAB16E28 SLP140 P0000 60000 T02720222 50012



Page loaded:  21:40 UTC  |   02:40 PM Pacific  |   03:40 PM Mountain  |   04:40 PM Central  |   05:40 PM Eastern

 

ADVISORIES

FORECASTS

FORECASTS

OBSERVATIONS

USER TOOLS

ABOUT US